createdAt,value
2022-08-10T00:00:58.657Z,24.72
2022-08-10T00:03:26.496Z,24.69
2022-08-10T00:05:56.501Z,24.69
2022-08-10T00:08:25.158Z,24.71
2022-08-10T00:10:53.378Z,24.65
2022-08-10T00:13:21.380Z,24.65
2022-08-10T00:15:55.243Z,24.45
2022-08-10T00:18:31.598Z,24.44
2022-08-10T00:21:04.870Z,24.59
2022-08-10T00:23:32.813Z,24.58
2022-08-10T00:26:00.736Z,24.54
2022-08-10T00:28:28.625Z,24.53
2022-08-10T00:30:56.550Z,24.51
2022-08-10T00:33:25.808Z,24.49
2022-08-10T00:35:54.740Z,24.48
2022-08-10T00:38:22.653Z,24.47
2022-08-10T00:40:50.513Z,24.41
2022-08-10T00:43:23.500Z,24.37
2022-08-10T00:45:58.823Z,24.34
2022-08-10T00:48:30.306Z,24.32
2022-08-10T00:50:58.962Z,24.30
2022-08-10T00:53:27.158Z,24.30
2022-08-10T00:57:15.246Z,24.13
2022-08-10T00:58:43.020Z,24.29
2022-08-10T01:01:10.980Z,24.30
2022-08-10T01:04:39.613Z,24.27
2022-08-10T01:06:52.728Z,24.24
2022-08-10T01:09:22.226Z,24.07
2022-08-10T01:12:39.788Z,24.20
2022-08-10T01:14:43.728Z,24.15
2022-08-10T01:17:13.171Z,24.10
2022-08-10T01:19:50.950Z,23.89
2022-08-10T01:22:39.883Z,23.93
2022-08-10T01:26:10.402Z,23.97
2022-08-10T01:28:33.148Z,23.90
2022-08-10T01:31:02.604Z,23.77
2022-08-10T01:33:58.763Z,23.77
2022-08-10T01:36:32.053Z,23.78
2022-08-10T01:39:01.279Z,23.72
2022-08-10T01:41:45.695Z,23.64
2022-08-10T01:44:15.759Z,23.64
2022-08-10T01:46:48.569Z,23.56
2022-08-10T01:49:18.863Z,23.41
2022-08-10T01:51:47.865Z,23.50
2022-08-10T01:54:17.021Z,23.47
2022-08-10T01:56:46.370Z,23.44
2022-08-10T01:59:17.287Z,23.36
2022-08-10T02:01:49.223Z,23.39
2022-08-10T02:04:18.078Z,23.32
2022-08-10T02:06:46.994Z,23.20
2022-08-10T02:09:16.826Z,23.34
2022-08-10T02:12:05.151Z,23.32
2022-08-10T02:14:34.679Z,23.28
2022-08-10T02:17:05.451Z,23.25
2022-08-10T02:19:33.488Z,22.97
2022-08-10T02:22:36.770Z,23.24
2022-08-10T02:24:49.128Z,23.22
2022-08-10T02:27:17.013Z,23.19
2022-08-10T02:29:44.850Z,23.15
2022-08-10T02:32:28.169Z,23.12
2022-08-10T02:35:08.655Z,23.04
2022-08-10T02:37:48.074Z,23.10
2022-08-10T02:45:14.468Z,23.06
2022-08-10T02:45:17.969Z,23.05
2022-08-10T02:45:57.970Z,22.92
2022-08-10T02:48:32.752Z,22.92
2022-08-10T02:51:02.952Z,22.87
2022-08-10T02:53:55.527Z,22.93
2022-08-10T02:56:22.826Z,22.88
2022-08-10T02:58:54.537Z,22.58
2022-08-10T03:01:24.456Z,22.86
2022-08-10T03:03:59.195Z,22.83
2022-08-10T03:06:28.238Z,22.83
2022-08-10T03:08:56.111Z,22.83
2022-08-10T03:12:34.892Z,22.83
2022-08-10T03:14:13.111Z,22.48
2022-08-10T03:16:40.999Z,22.78
2022-08-10T03:20:36.033Z,22.77
2022-08-10T03:21:58.212Z,22.70
2022-08-10T03:24:32.691Z,22.75
2022-08-10T03:27:01.446Z,22.74
2022-08-10T03:29:29.621Z,22.72
2022-08-10T03:31:57.462Z,22.66
2022-08-10T03:34:33.382Z,22.69
2022-08-10T03:37:01.708Z,22.74
2022-08-10T03:39:30.843Z,22.74
2022-08-10T03:42:00.080Z,22.67
2022-08-10T03:44:29.769Z,22.58
2022-08-10T03:46:57.590Z,22.65
2022-08-10T03:49:26.918Z,22.58
2022-08-10T03:51:54.749Z,22.58
2022-08-10T03:54:24.108Z,22.45
2022-08-10T03:56:51.956Z,22.52
2022-08-10T03:59:19.898Z,22.53
2022-08-10T04:02:44.143Z,22.41
2022-08-10T04:04:37.054Z,22.41
2022-08-10T04:07:05.507Z,22.40
2022-08-10T04:09:53.503Z,22.10
2022-08-10T04:12:22.513Z,22.34
2022-08-10T04:14:52.930Z,22.33
2022-08-10T04:18:03.325Z,22.28
2022-08-10T04:20:15.003Z,22.19
2022-08-10T04:22:43.010Z,22.20
2022-08-10T04:25:10.945Z,21.94
2022-08-10T04:27:38.820Z,22.17
2022-08-10T04:30:07.879Z,22.17
2022-08-10T04:32:36.104Z,22.16
2022-08-10T04:35:04.884Z,21.00
2022-08-10T04:37:34.370Z,21.56
2022-08-10T04:40:02.579Z,20.22
2022-08-10T04:42:30.761Z,19.96
2022-08-10T04:44:59.456Z,21.22
2022-08-10T04:47:57.904Z,22.21
2022-08-10T04:50:15.886Z,20.53
2022-08-10T04:52:47.609Z,22.20
2022-08-10T04:55:15.842Z,22.25
2022-08-10T04:57:44.024Z,19.29
2022-08-10T05:00:18.953Z,22.27
2022-08-10T05:02:47.895Z,21.67
2022-08-10T05:05:16.030Z,20.53
2022-08-10T05:07:51.419Z,21.20
2022-08-10T05:10:24.106Z,20.53
2022-08-10T05:12:52.880Z,21.22
2022-08-10T05:15:23.940Z,20.39
2022-08-10T05:18:08.142Z,19.78
2022-08-10T05:20:37.992Z,22.09
2022-08-10T05:23:05.936Z,21.99
2022-08-10T05:25:37.461Z,21.75
2022-08-10T05:28:06.955Z,22.76
2022-08-10T05:30:35.379Z,22.32
2022-08-10T05:33:08.051Z,22.87
2022-08-10T05:35:56.568Z,21.29
2022-08-10T05:38:26.880Z,22.71
2022-08-10T05:40:56.242Z,23.02
2022-08-10T05:43:24.155Z,22.14
2022-08-10T05:46:17.737Z,22.02
2022-08-10T05:48:59.402Z,22.78
2022-08-10T05:51:28.517Z,22.70
2022-08-10T05:54:00.853Z,22.58
2022-08-10T05:56:54.699Z,23.66
2022-08-10T06:00:10.673Z,22.05
2022-08-10T06:02:30.858Z,22.66
2022-08-10T06:05:01.709Z,24.20
2022-08-10T06:07:29.727Z,22.64
2022-08-10T06:09:59.139Z,24.32
2022-08-10T06:12:31.306Z,25.51
2022-08-10T06:15:05.318Z,25.38
2022-08-10T06:17:34.189Z,27.15
2022-08-10T06:20:02.201Z,27.50
2022-08-10T06:22:32.396Z,27.44
2022-08-10T06:25:27.281Z,28.53
2022-08-10T06:27:50.395Z,28.02
2022-08-10T06:30:20.858Z,28.42
2022-08-10T06:32:49.359Z,30.02
2022-08-10T06:35:17.501Z,30.43
2022-08-10T06:37:50.564Z,29.47
2022-08-10T06:40:19.760Z,29.41
2022-08-10T06:42:48.401Z,30.89
2022-08-10T06:45:18.586Z,31.78
2022-08-10T06:47:48.657Z,30.87
2022-08-10T06:50:34.940Z,31.48
2022-08-10T06:53:07.631Z,31.43
2022-08-10T06:55:55.497Z,32.50
2022-08-10T06:58:26.576Z,32.07
2022-08-10T07:00:56.642Z,32.18
2022-08-10T07:03:27.408Z,32.32
2022-08-10T07:05:55.365Z,33.04
2022-08-10T07:08:23.401Z,33.66
2022-08-10T07:10:51.526Z,33.16
2022-08-10T07:14:16.019Z,33.82
2022-08-10T07:16:12.888Z,32.98
2022-08-10T07:18:41.239Z,32.72
2022-08-10T07:21:10.242Z,33.48
2022-08-10T07:23:58.395Z,34.68
2022-08-10T07:26:26.726Z,33.83
2022-08-10T07:28:54.831Z,34.62
2022-08-10T07:31:31.101Z,35.44
2022-08-10T07:34:28.570Z,35.06
2022-08-10T07:37:00.317Z,36.00
2022-08-10T07:39:57.930Z,36.22
2022-08-10T07:42:21.395Z,34.73
2022-08-10T07:44:50.612Z,36.28
2022-08-10T07:47:52.335Z,36.63
2022-08-10T07:50:17.677Z,36.78
2022-08-10T07:52:45.705Z,36.39
2022-08-10T07:55:16.298Z,37.49
2022-08-10T07:57:44.437Z,36.59
2022-08-10T08:00:13.521Z,37.24
2022-08-10T08:02:46.230Z,35.84
2022-08-10T08:05:27.597Z,36.36
2022-08-10T08:08:02.948Z,37.50
2022-08-10T08:10:31.340Z,36.89
2022-08-10T08:12:59.422Z,37.19
2022-08-10T08:16:18.640Z,37.28
2022-08-10T08:18:23.006Z,36.05
2022-08-10T08:20:54.450Z,38.48
2022-08-10T08:24:30.300Z,37.95
2022-08-10T08:26:12.100Z,37.34
2022-08-10T08:28:45.853Z,39.52
2022-08-10T08:31:13.992Z,39.07
2022-08-10T08:33:43.305Z,39.05
2022-08-10T08:36:11.507Z,38.27
2022-08-10T08:38:39.445Z,39.78
2022-08-10T08:41:19.627Z,38.51
2022-08-10T08:43:50.672Z,39.80
2022-08-10T08:46:58.772Z,40.61
2022-08-10T08:50:07.910Z,40.08
2022-08-10T08:52:40.443Z,40.87
2022-08-10T08:55:55.215Z,41.33
2022-08-10T08:58:09.647Z,40.15
2022-08-10T09:00:42.600Z,41.63
2022-08-10T09:03:32.282Z,41.72
2022-08-10T09:06:07.772Z,42.24
2022-08-10T09:09:04.801Z,42.72
2022-08-10T09:11:42.533Z,43.45
2022-08-10T09:14:17.901Z,41.97
2022-08-10T09:16:58.733Z,42.95
2022-08-10T09:19:36.131Z,42.14
2022-08-10T09:22:18.293Z,44.44
2022-08-10T09:24:59.239Z,44.07
2022-08-10T09:27:33.899Z,45.08
2022-08-10T09:30:06.933Z,45.15
2022-08-10T09:36:15.984Z,43.80
2022-08-10T09:36:22.618Z,43.20
2022-08-10T09:38:30.532Z,44.37
2022-08-10T09:41:04.953Z,44.93
2022-08-10T09:43:43.294Z,44.84
2022-08-10T09:46:16.135Z,45.41
2022-08-10T09:48:47.399Z,46.26
2022-08-10T09:54:22.944Z,47.48
2022-08-10T09:57:17.808Z,48.41
2022-08-10T10:00:01.386Z,48.16
2022-08-10T10:02:36.799Z,47.21
2022-08-10T10:05:09.113Z,47.26
2022-08-10T10:07:40.168Z,45.62
2022-08-10T10:10:13.582Z,47.17
2022-08-10T10:12:46.442Z,47.85
2022-08-10T10:15:24.929Z,48.65
2022-08-10T10:18:19.731Z,49.45
2022-08-10T10:20:54.350Z,49.17
2022-08-10T10:23:27.737Z,48.08
2022-08-10T10:26:04.931Z,49.08
2022-08-10T10:29:19.720Z,49.95
2022-08-10T10:31:31.871Z,48.99
2022-08-10T10:36:42.754Z,50.69
2022-08-10T10:39:10.812Z,50.93
2022-08-10T10:41:56.250Z,50.94
2022-08-10T10:44:41.988Z,51.51
2022-08-10T10:47:29.624Z,51.97
2022-08-10T10:50:04.053Z,52.65
2022-08-10T10:52:40.120Z,52.84
2022-08-10T10:55:14.400Z,52.87
2022-08-10T10:57:58.797Z,52.54
2022-08-10T11:00:31.372Z,52.87
2022-08-10T11:03:10.684Z,53.20
2022-08-10T11:05:55.495Z,54.04
2022-08-10T11:08:28.677Z,54.20
2022-08-10T11:11:02.003Z,53.91
2022-08-10T11:14:25.316Z,53.01
2022-08-10T11:16:26.878Z,52.77
2022-08-10T11:19:00.197Z,52.76
2022-08-10T11:21:41.277Z,52.91
2022-08-10T11:24:47.943Z,52.46
2022-08-10T11:27:03.648Z,51.69
2022-08-10T11:29:34.762Z,51.50
2022-08-10T11:32:04.728Z,51.75
2022-08-10T11:34:49.033Z,52.02
2022-08-10T11:37:29.124Z,52.05
2022-08-10T11:40:19.327Z,50.96
2022-08-10T11:42:51.285Z,49.65
2022-08-10T11:45:22.808Z,48.57
2022-08-10T11:47:52.714Z,47.11
2022-08-10T11:50:24.051Z,45.66
2022-08-10T11:52:58.097Z,44.72
2022-08-10T11:55:26.997Z,43.78
2022-08-10T11:57:58.510Z,42.94
2022-08-10T12:00:32.468Z,42.06
2022-08-10T12:03:03.160Z,41.47
2022-08-10T12:05:54.511Z,40.89
2022-08-10T12:10:02.211Z,40.33
2022-08-10T12:11:23.743Z,39.89
2022-08-10T12:14:19.682Z,39.52
2022-08-10T12:16:46.566Z,39.12
2022-08-10T12:19:16.927Z,38.94
2022-08-10T12:21:46.914Z,38.43
2022-08-10T12:24:20.561Z,38.39
2022-08-10T12:26:53.375Z,38.05
2022-08-10T12:29:27.441Z,37.93
2022-08-10T12:32:00.519Z,37.76
2022-08-10T12:34:31.399Z,37.77
2022-08-10T12:37:05.751Z,37.73
2022-08-10T12:39:36.611Z,37.67
2022-08-10T12:42:06.626Z,37.74
2022-08-10T12:44:41.496Z,37.80
2022-08-10T12:47:17.845Z,37.65
2022-08-10T12:50:30.910Z,37.72
2022-08-10T12:52:41.104Z,37.65
2022-08-10T12:55:09.318Z,37.51
2022-08-10T12:57:37.399Z,37.33
2022-08-10T13:00:06.923Z,37.30
2022-08-10T13:02:49.081Z,37.13
2022-08-10T13:05:17.332Z,37.08
2022-08-10T13:08:24.783Z,36.94
2022-08-10T13:10:34.424Z,36.88
2022-08-10T13:13:02.336Z,36.85
2022-08-10T13:15:50.114Z,36.87
2022-08-10T13:18:27.214Z,36.85
2022-08-10T13:20:56.589Z,36.78
2022-08-10T13:23:26.959Z,36.81
2022-08-10T13:25:56.228Z,36.79
2022-08-10T13:28:36.603Z,36.74
2022-08-10T13:31:08.466Z,36.74
2022-08-10T13:34:41.094Z,36.55
2022-08-10T13:36:35.729Z,36.61
2022-08-10T13:39:03.631Z,36.54
2022-08-10T13:41:33.584Z,36.55
2022-08-10T13:44:01.710Z,36.54
2022-08-10T13:46:29.639Z,36.48
2022-08-10T13:48:59.248Z,36.43
2022-08-10T13:51:53.973Z,36.38
2022-08-10T13:54:19.796Z,36.45
2022-08-10T13:56:48.539Z,36.42
2022-08-10T13:59:16.642Z,36.41
2022-08-10T14:01:48.394Z,36.39
2022-08-10T14:04:18.871Z,36.35
2022-08-10T14:06:51.449Z,36.26
2022-08-10T14:09:26.998Z,36.17
2022-08-10T14:11:55.071Z,36.12
2022-08-10T14:14:22.968Z,36.07
2022-08-10T14:16:50.880Z,36.00
2022-08-10T14:19:21.016Z,35.95
2022-08-10T14:21:49.943Z,35.92
2022-08-10T14:24:21.852Z,35.86
2022-08-10T14:26:50.008Z,35.85
2022-08-10T14:29:19.097Z,35.91
2022-08-10T14:32:01.854Z,35.94
2022-08-10T14:36:08.398Z,35.96
2022-08-10T14:37:23.893Z,35.94
2022-08-10T14:39:53.698Z,35.92
2022-08-10T14:42:27.757Z,35.65
2022-08-10T14:44:58.272Z,35.90
2022-08-10T14:47:51.592Z,35.88
2022-08-10T14:50:32.509Z,35.72
2022-08-10T14:53:01.407Z,35.61
2022-08-10T14:55:31.020Z,35.67
2022-08-10T14:58:21.270Z,35.67
2022-08-10T15:00:49.177Z,35.67
2022-08-10T15:03:59.444Z,35.66
2022-08-10T15:06:17.208Z,35.63
2022-08-10T15:08:47.020Z,35.70
2022-08-10T15:12:15.160Z,35.49
2022-08-10T15:14:15.237Z,35.61
2022-08-10T15:16:53.567Z,35.59
2022-08-10T15:20:01.183Z,35.49
2022-08-10T15:22:35.750Z,35.49
2022-08-10T15:25:04.892Z,35.43
2022-08-10T15:27:53.522Z,35.30
2022-08-10T15:30:30.562Z,35.43
2022-08-10T15:33:20.882Z,35.46
2022-08-10T15:36:23.677Z,35.48
2022-08-10T15:38:58.978Z,35.42
2022-08-10T15:41:57.704Z,35.26
2022-08-10T15:44:24.418Z,35.36
2022-08-10T15:46:54.973Z,35.34
2022-08-10T15:49:26.760Z,35.29
2022-08-10T15:51:58.483Z,35.24
2022-08-10T15:54:34.413Z,35.27
2022-08-10T15:57:03.766Z,35.20
2022-08-10T15:59:33.092Z,35.10
2022-08-10T16:02:13.111Z,35.02
2022-08-10T16:04:48.691Z,34.97
2022-08-10T16:07:19.304Z,34.90
2022-08-10T16:10:23.312Z,34.84
2022-08-10T16:12:42.104Z,34.87
2022-08-10T16:15:12.789Z,34.92
2022-08-10T16:17:55.558Z,34.85
2022-08-10T16:20:33.970Z,34.80
2022-08-10T16:23:22.598Z,34.81
2022-08-10T16:25:58.138Z,34.71
2022-08-10T16:28:31.457Z,34.64
2022-08-10T16:30:59.735Z,34.43
2022-08-10T16:33:54.287Z,34.33
2022-08-10T16:36:18.571Z,34.35
2022-08-10T16:38:48.022Z,34.04
2022-08-10T16:42:01.975Z,34.23
2022-08-10T16:44:06.023Z,34.19
2022-08-10T16:46:34.166Z,34.18
2022-08-10T16:49:02.063Z,34.07
2022-08-10T16:51:30.047Z,34.04
2022-08-10T16:53:57.959Z,34.08
2022-08-10T16:56:29.708Z,34.05
2022-08-10T16:58:57.955Z,34.07
2022-08-10T17:01:27.054Z,33.80
2022-08-10T17:04:06.254Z,33.85
2022-08-10T17:06:39.087Z,33.25
2022-08-10T17:09:08.376Z,33.95
2022-08-10T17:11:50.781Z,33.93
2022-08-10T17:14:18.776Z,33.84
2022-08-10T17:16:47.171Z,33.16
2022-08-10T17:19:15.721Z,33.62
2022-08-10T17:21:56.733Z,31.22
2022-08-10T17:24:28.012Z,30.96
2022-08-10T17:26:59.229Z,31.56
2022-08-10T17:29:58.252Z,32.98
2022-08-10T17:32:25.631Z,32.63
2022-08-10T17:34:57.203Z,31.27
2022-08-10T17:37:27.460Z,32.58
2022-08-10T17:39:58.153Z,32.45
2022-08-10T17:42:27.615Z,32.42
2022-08-10T17:44:55.784Z,32.75
2022-08-10T17:47:27.444Z,32.62
2022-08-10T17:49:57.339Z,30.61
2022-08-10T17:52:27.440Z,32.88
2022-08-10T17:54:56.513Z,32.85
2022-08-10T17:57:24.803Z,32.22
2022-08-10T17:59:54.332Z,31.44
2022-08-10T18:02:24.328Z,29.61
2022-08-10T18:04:53.588Z,31.62
2022-08-10T18:07:23.590Z,32.22
2022-08-10T18:09:52.994Z,32.02
2022-08-10T18:12:32.501Z,32.50
2022-08-10T18:15:08.484Z,31.83
2022-08-10T18:17:41.092Z,32.37
2022-08-10T18:20:11.037Z,31.00
2022-08-10T18:22:43.759Z,29.69
2022-08-10T18:25:18.263Z,32.12
2022-08-10T18:28:04.057Z,30.25
2022-08-10T18:30:36.529Z,32.02
2022-08-10T18:33:05.293Z,31.15
2022-08-10T18:35:34.299Z,30.22
2022-08-10T18:38:03.216Z,30.45
2022-08-10T18:40:35.585Z,31.29
2022-08-10T18:43:08.550Z,30.70
2022-08-10T18:45:55.362Z,29.59
2022-08-10T18:48:25.064Z,29.06
2022-08-10T18:50:54.488Z,30.58
2022-08-10T18:53:26.656Z,30.20
2022-08-10T18:56:09.106Z,31.40
2022-08-10T18:58:52.582Z,31.34
2022-08-10T19:01:42.183Z,30.78
2022-08-10T19:04:18.948Z,30.60
2022-08-10T19:07:04.961Z,30.46
2022-08-10T19:09:48.331Z,29.65
2022-08-10T19:12:33.180Z,29.22
2022-08-10T19:15:05.970Z,30.20
2022-08-10T19:18:03.820Z,29.50
2022-08-10T19:20:33.665Z,30.43
2022-08-10T19:23:15.247Z,30.68
2022-08-10T19:26:17.111Z,30.10
2022-08-10T19:28:39.329Z,29.57
2022-08-10T19:31:11.612Z,30.47
2022-08-10T19:33:52.951Z,29.68
2022-08-10T19:36:44.807Z,27.92
2022-08-10T19:39:18.640Z,29.19
2022-08-10T19:41:54.232Z,30.21
2022-08-10T19:44:26.979Z,29.74
2022-08-10T19:46:57.273Z,29.43
2022-08-10T19:49:32.485Z,28.83
2022-08-10T19:52:11.811Z,29.67
2022-08-10T19:54:44.463Z,29.10
2022-08-10T19:57:13.911Z,29.03
2022-08-10T20:00:02.062Z,28.17
2022-08-10T20:02:41.344Z,29.73
2022-08-10T20:05:13.093Z,28.51
2022-08-10T20:07:44.276Z,27.97
2022-08-10T20:10:14.560Z,28.19
2022-08-10T20:12:45.693Z,28.85
2022-08-10T20:15:22.707Z,27.70
2022-08-10T20:17:56.316Z,27.79
2022-08-10T20:20:31.772Z,27.74
2022-08-10T20:23:05.090Z,27.95
2022-08-10T20:25:33.078Z,28.26
2022-08-10T20:28:05.266Z,28.26
2022-08-10T20:30:34.343Z,29.12
2022-08-10T20:33:09.449Z,28.22
2022-08-10T20:35:47.534Z,27.34
2022-08-10T20:38:18.547Z,27.90
2022-08-10T20:40:57.232Z,28.88
2022-08-10T20:43:27.492Z,28.86
2022-08-10T20:46:08.519Z,28.80
2022-08-10T20:48:39.420Z,28.74
2022-08-10T20:51:10.311Z,27.99
2022-08-10T20:53:43.603Z,25.73
2022-08-10T20:56:16.145Z,28.20
2022-08-10T20:59:09.175Z,26.91
2022-08-10T21:02:06.749Z,26.99
2022-08-10T21:04:47.947Z,28.47
2022-08-10T21:07:57.765Z,27.70
2022-08-10T21:10:19.788Z,27.62
2022-08-10T21:12:57.332Z,27.20
2022-08-10T21:15:29.736Z,26.83
2022-08-10T21:18:10.232Z,26.53
2022-08-10T21:20:47.131Z,28.08
2022-08-10T21:23:17.013Z,26.68
2022-08-10T21:25:47.806Z,28.00
2022-08-10T21:28:37.735Z,27.96
2022-08-10T21:31:16.146Z,26.55
2022-08-10T21:34:00.387Z,27.48
2022-08-10T21:36:30.614Z,26.17
2022-08-10T21:39:09.901Z,26.78
2022-08-10T21:42:00.276Z,27.53
2022-08-10T21:44:53.121Z,26.33
2022-08-10T21:48:06.876Z,26.81
2022-08-10T21:50:56.102Z,27.30
2022-08-10T21:53:45.191Z,27.49
2022-08-10T21:56:37.007Z,25.06
2022-08-10T21:59:24.247Z,25.07
2022-08-10T22:02:11.021Z,26.07
2022-08-10T22:04:57.004Z,26.64
2022-08-10T22:07:42.562Z,25.83
2022-08-10T22:10:28.990Z,27.15
2022-08-10T22:13:17.901Z,24.96
2022-08-10T22:16:11.002Z,25.09
2022-08-10T22:19:01.449Z,27.01
2022-08-10T22:21:55.959Z,26.86
2022-08-10T22:24:45.658Z,26.01
2022-08-10T22:27:46.381Z,26.19
2022-08-10T22:30:35.944Z,26.48
2022-08-10T22:33:29.545Z,25.21
2022-08-10T22:36:26.823Z,25.29
2022-08-10T22:40:05.614Z,26.70
2022-08-10T22:42:58.239Z,23.48
2022-08-10T22:45:42.767Z,26.02
2022-08-10T22:48:28.226Z,25.61
2022-08-10T22:50:57.443Z,24.14
2022-08-10T22:53:49.728Z,26.19
2022-08-10T22:56:37.698Z,26.49
2022-08-10T22:59:06.233Z,25.82
2022-08-10T23:04:03.411Z,26.38
2022-08-10T23:06:31.352Z,26.28
2022-08-10T23:09:01.226Z,26.30
2022-08-10T23:11:32.297Z,26.26
2022-08-10T23:14:02.249Z,26.17
2022-08-10T23:16:48.857Z,26.22
2022-08-10T23:19:18.955Z,25.95
2022-08-10T23:22:03.712Z,26.13
2022-08-10T23:24:36.286Z,26.12
2022-08-10T23:27:10.305Z,26.09
2022-08-10T23:29:44.718Z,26.07
2022-08-10T23:32:30.904Z,26.04
2022-08-10T23:36:30.567Z,25.98
2022-08-10T23:37:49.959Z,25.92
2022-08-10T23:40:18.961Z,25.90
2022-08-10T23:42:48.863Z,25.86
2022-08-10T23:45:18.346Z,25.83
2022-08-10T23:47:47.264Z,25.76
2022-08-10T23:50:17.955Z,25.64
2022-08-10T23:52:51.243Z,25.72
2022-08-10T23:55:23.192Z,25.58
2022-08-10T23:57:54.172Z,25.32
